createdAt,value
2023-04-14T00:00:11.441Z,2.10
2023-04-14T00:01:17.436Z,1.77
2023-04-14T00:02:19.004Z,1.83
2023-04-14T00:03:21.735Z,1.70
2023-04-14T00:04:23.797Z,1.92
2023-04-14T00:05:29.650Z,2.10
2023-04-14T00:06:32.939Z,1.80
2023-04-14T00:07:35.417Z,1.70
2023-04-14T00:08:36.982Z,1.60
2023-04-14T00:09:39.440Z,1.77
2023-04-14T00:10:41.313Z,2.00
2023-04-14T00:11:43.789Z,2.40
2023-04-14T00:12:45.276Z,1.80
2023-04-14T00:13:47.789Z,1.77
2023-04-14T00:14:49.607Z,2.10
2023-04-14T00:15:52.145Z,1.77
2023-04-14T00:16:53.703Z,1.95
2023-04-14T00:17:56.247Z,1.90
2023-04-14T00:18:58.140Z,1.52
2023-04-14T00:20:00.729Z,1.80
2023-04-14T00:21:02.787Z,1.67
2023-04-14T00:22:06.580Z,1.50
2023-04-14T00:23:08.123Z,1.80
2023-04-14T00:24:10.812Z,1.70
2023-04-14T00:25:12.431Z,1.90
2023-04-14T00:26:15.043Z,1.63
2023-04-14T00:27:16.661Z,1.80
2023-04-14T00:28:19.091Z,1.92
2023-04-14T00:29:20.858Z,2.00
2023-04-14T00:30:23.303Z,1.80
2023-04-14T00:31:24.977Z,1.58
2023-04-14T00:32:27.501Z,2.15
2023-04-14T00:33:29.442Z,2.08
2023-04-14T00:34:32.137Z,1.95
2023-04-14T00:35:33.677Z,2.30
2023-04-14T00:36:36.857Z,1.77
2023-04-14T00:37:40.113Z,2.15
2023-04-14T00:38:42.555Z,2.10
2023-04-14T00:39:44.203Z,1.60
2023-04-14T00:40:46.746Z,1.98
2023-04-14T00:41:48.459Z,1.80
2023-04-14T00:42:51.083Z,1.85
2023-04-14T00:43:53.311Z,1.77
2023-04-14T00:44:55.770Z,2.22
2023-04-14T00:45:57.421Z,1.75
2023-04-14T00:47:01.654Z,2.28
2023-04-14T00:48:03.994Z,1.75
2023-04-14T00:49:06.835Z,2.10
2023-04-14T00:50:09.566Z,2.03
2023-04-14T00:51:12.496Z,1.90
2023-04-14T00:52:14.315Z,1.80
2023-04-14T00:53:18.203Z,1.65
2023-04-14T00:54:20.940Z,1.73
2023-04-14T00:55:23.492Z,1.73
2023-04-14T00:56:26.395Z,1.88
2023-04-14T00:57:29.799Z,1.95
2023-04-14T00:58:31.656Z,2.20
2023-04-14T00:59:34.738Z,2.33
2023-04-14T01:00:37.948Z,1.80
2023-04-14T01:01:41.370Z,1.70
2023-04-14T01:02:42.979Z,1.55
2023-04-14T01:03:46.006Z,1.77
2023-04-14T01:04:54.362Z,1.65
2023-04-14T01:05:57.487Z,1.83
2023-04-14T01:06:59.078Z,1.70
2023-04-14T01:08:02.540Z,1.90
2023-04-14T01:09:06.496Z,2.00
2023-04-14T01:10:09.754Z,2.13
2023-04-14T01:11:17.021Z,2.20
2023-04-14T01:12:33.713Z,1.60
2023-04-14T01:13:41.694Z,1.50
2023-04-14T01:14:48.483Z,1.50
2023-04-14T01:15:56.457Z,1.30
2023-04-14T01:17:07.165Z,1.58
2023-04-14T01:18:14.687Z,1.38
2023-04-14T01:19:38.068Z,1.58
2023-04-14T01:20:42.345Z,1.70
2023-04-14T01:21:51.121Z,1.58
2023-04-14T01:22:58.577Z,1.40
2023-04-14T01:24:27.071Z,1.60
2023-04-14T01:26:06.758Z,1.40
2023-04-14T01:27:32.792Z,1.63
2023-04-14T01:28:48.371Z,1.58
2023-04-14T01:30:10.666Z,1.45
2023-04-14T01:31:24.016Z,1.40
2023-04-14T01:32:28.396Z,1.48
2023-04-14T01:33:34.215Z,1.45
2023-04-14T01:34:40.353Z,1.42
2023-04-14T01:35:46.824Z,1.88
2023-04-14T01:36:55.391Z,1.60
2023-04-14T01:38:03.765Z,1.63
2023-04-14T01:39:11.025Z,1.38
2023-04-14T01:40:17.326Z,1.75
2023-04-14T01:41:22.817Z,1.70
2023-04-14T01:42:29.628Z,1.40
2023-04-14T01:43:34.937Z,1.50
2023-04-14T01:44:38.646Z,1.52
2023-04-14T01:45:49.225Z,1.50
2023-04-14T01:46:57.714Z,1.13
2023-04-14T01:48:07.410Z,1.33
2023-04-14T01:49:10.239Z,1.45
2023-04-14T01:50:14.419Z,1.35
2023-04-14T01:51:18.955Z,1.38
2023-04-14T01:52:23.176Z,1.60
2023-04-14T01:53:27.885Z,1.55
2023-04-14T01:54:32.865Z,1.58
2023-04-14T01:55:37.427Z,1.25
2023-04-14T01:56:42.970Z,1.50
2023-04-14T01:57:46.762Z,1.60
2023-04-14T01:58:50.390Z,1.65
2023-04-14T01:59:55.333Z,1.25
2023-04-14T02:00:59.741Z,1.40
2023-04-14T02:02:05.149Z,1.83
2023-04-14T02:03:08.429Z,1.67
2023-04-14T02:04:11.600Z,1.60
2023-04-14T02:05:14.361Z,1.40
2023-04-14T02:06:17.748Z,1.75
2023-04-14T02:07:23.327Z,1.50
2023-04-14T02:08:25.694Z,1.67
2023-04-14T02:09:30.462Z,1.33
2023-04-14T02:10:34.065Z,1.67
2023-04-14T02:11:37.767Z,1.50
2023-04-14T02:12:42.314Z,1.50
2023-04-14T02:13:45.659Z,1.35
2023-04-14T02:14:48.820Z,1.40
2023-04-14T02:15:52.145Z,1.73
2023-04-14T02:16:54.440Z,1.50
2023-04-14T02:17:58.982Z,1.77
2023-04-14T02:19:02.893Z,1.90
2023-04-14T02:20:08.364Z,1.67
2023-04-14T02:21:10.115Z,1.50
2023-04-14T02:22:12.817Z,2.38
2023-04-14T02:23:14.832Z,1.80
2023-04-14T02:24:17.977Z,1.85
2023-04-14T02:25:21.813Z,1.67
2023-04-14T02:26:29.624Z,1.67
2023-04-14T02:27:37.479Z,1.45
2023-04-14T02:28:47.142Z,1.75
2023-04-14T02:29:53.710Z,1.60
2023-04-14T02:30:58.658Z,1.90
2023-04-14T02:32:04.580Z,1.58
2023-04-14T02:33:10.699Z,1.60
2023-04-14T02:34:14.404Z,1.60
2023-04-14T02:35:25.009Z,1.70
2023-04-14T02:36:32.499Z,1.35
2023-04-14T02:37:38.691Z,1.80
2023-04-14T02:38:46.630Z,1.80
2023-04-14T02:39:54.662Z,1.70
2023-04-14T02:40:56.535Z,1.75
2023-04-14T02:42:03.663Z,1.58
2023-04-14T02:43:11.325Z,1.67
2023-04-14T02:44:19.081Z,1.65
2023-04-14T02:45:23.101Z,2.50
2023-04-14T02:46:28.657Z,1.85
2023-04-14T02:47:34.926Z,1.85
2023-04-14T02:48:42.889Z,1.92
2023-04-14T02:49:47.723Z,2.05
2023-04-14T02:50:53.609Z,1.73
2023-04-14T02:51:57.452Z,1.65
2023-04-14T02:53:01.563Z,1.70
2023-04-14T02:54:04.407Z,1.52
2023-04-14T02:55:08.777Z,2.00
2023-04-14T02:56:10.648Z,1.83
2023-04-14T02:57:14.119Z,1.65
2023-04-14T02:58:16.768Z,1.73
2023-04-14T02:59:20.272Z,1.60
2023-04-14T03:00:23.695Z,2.10
2023-04-14T03:01:26.891Z,2.00
2023-04-14T03:02:29.083Z,2.00
2023-04-14T03:03:37.557Z,2.15
2023-04-14T03:04:41.159Z,2.05
2023-04-14T03:05:45.087Z,2.03
2023-04-14T03:06:47.291Z,2.22
2023-04-14T03:07:51.802Z,2.10
2023-04-14T03:08:54.777Z,2.28
2023-04-14T03:09:58.842Z,2.03
2023-04-14T03:11:02.260Z,2.30
2023-04-14T03:12:06.883Z,2.28
2023-04-14T03:13:09.697Z,2.10
2023-04-14T03:14:13.555Z,2.40
2023-04-14T03:15:16.179Z,2.30
2023-04-14T03:16:21.050Z,2.05
2023-04-14T03:17:23.325Z,2.17
2023-04-14T03:18:27.188Z,2.00
2023-04-14T03:19:29.665Z,2.50
2023-04-14T03:20:34.230Z,2.10
2023-04-14T03:21:36.562Z,2.38
2023-04-14T03:22:41.672Z,2.42
2023-04-14T03:23:44.878Z,2.25
2023-04-14T03:24:48.296Z,2.17
2023-04-14T03:25:51.444Z,2.92
2023-04-14T03:26:57.990Z,2.28
2023-04-14T03:28:02.446Z,2.90
2023-04-14T03:29:08.539Z,2.60
2023-04-14T03:30:13.311Z,2.92
2023-04-14T03:31:19.027Z,2.67
2023-04-14T03:32:23.454Z,2.22
2023-04-14T03:33:29.993Z,2.45
2023-04-14T03:34:33.532Z,2.58
2023-04-14T03:35:38.336Z,2.42
2023-04-14T03:36:43.485Z,2.90
2023-04-14T03:37:51.156Z,2.80
2023-04-14T03:38:58.800Z,2.92
2023-04-14T03:40:05.967Z,2.90
2023-04-14T03:41:09.987Z,3.20
2023-04-14T03:42:13.745Z,2.47
2023-04-14T03:43:19.923Z,2.97
2023-04-14T03:44:25.828Z,3.15
2023-04-14T03:45:28.310Z,2.83
2023-04-14T03:46:31.762Z,2.75
2023-04-14T03:47:34.224Z,2.75
2023-04-14T03:48:42.263Z,2.80
2023-04-14T03:49:46.837Z,2.65
2023-04-14T03:50:53.615Z,2.72
2023-04-14T03:52:00.796Z,3.00
2023-04-14T03:53:05.832Z,2.70
2023-04-14T03:54:10.041Z,3.20
2023-04-14T03:55:13.639Z,2.72
2023-04-14T03:56:17.690Z,3.30
2023-04-14T03:57:23.464Z,2.72
2023-04-14T03:58:27.128Z,2.80
2023-04-14T03:59:31.127Z,3.08
2023-04-14T04:00:33.020Z,3.47
2023-04-14T04:01:36.987Z,3.67
2023-04-14T04:02:40.205Z,2.80
2023-04-14T04:03:44.321Z,3.30
2023-04-14T04:04:48.506Z,3.42
2023-04-14T04:05:53.760Z,3.85
2023-04-14T04:06:55.611Z,3.20
2023-04-14T04:08:03.061Z,3.58
2023-04-14T04:09:05.836Z,3.60
2023-04-14T04:10:09.630Z,4.00
2023-04-14T04:11:13.138Z,3.60
2023-04-14T04:12:19.177Z,3.45
2023-04-14T04:13:21.403Z,5.40
2023-04-14T04:14:26.341Z,4.90
2023-04-14T04:15:29.051Z,4.50
2023-04-14T04:16:32.973Z,4.90
2023-04-14T04:17:36.136Z,4.85
2023-04-14T04:18:40.415Z,4.60
2023-04-14T04:19:44.770Z,5.32
2023-04-14T04:20:48.252Z,4.75
2023-04-14T04:21:55.977Z,5.35
2023-04-14T04:23:02.297Z,5.32
2023-04-14T04:24:06.257Z,5.00
2023-04-14T04:25:10.939Z,4.78
2023-04-14T04:26:12.939Z,5.15
2023-04-14T04:27:26.988Z,5.00
2023-04-14T04:28:29.570Z,4.90
2023-04-14T04:29:32.732Z,5.40
2023-04-14T04:30:38.733Z,4.95
2023-04-14T04:31:41.864Z,4.82
2023-04-14T04:32:43.493Z,4.30
2023-04-14T04:33:47.097Z,4.55
2023-04-14T04:34:50.494Z,5.07
2023-04-14T04:35:53.919Z,4.90
2023-04-14T04:36:57.176Z,5.13
2023-04-14T04:38:01.212Z,5.00
2023-04-14T04:39:03.414Z,4.82
2023-04-14T04:40:07.381Z,4.85
2023-04-14T04:41:20.226Z,4.90
2023-04-14T04:42:22.690Z,5.40
2023-04-14T04:43:24.317Z,5.30
2023-04-14T04:44:26.851Z,5.38
2023-04-14T04:45:45.368Z,4.82
2023-04-14T04:46:53.265Z,5.43
2023-04-14T04:47:54.884Z,5.15
2023-04-14T04:48:58.866Z,5.30
2023-04-14T04:50:00.620Z,4.93
2023-04-14T04:51:03.093Z,4.90
2023-04-14T04:52:07.032Z,4.38
2023-04-14T04:53:08.688Z,5.00
2023-04-14T04:54:11.342Z,4.97
2023-04-14T04:55:14.180Z,4.90
2023-04-14T04:56:15.834Z,5.38
2023-04-14T04:57:18.474Z,5.32
2023-04-14T04:58:19.990Z,5.68
2023-04-14T04:59:22.853Z,4.88
2023-04-14T05:00:27.328Z,5.45
2023-04-14T05:01:29.988Z,5.13
2023-04-14T05:02:31.811Z,4.93
2023-04-14T05:03:37.692Z,5.18
2023-04-14T05:04:39.374Z,4.50
2023-04-14T05:05:41.977Z,4.22
2023-04-14T05:06:43.582Z,4.82
2023-04-14T05:07:47.408Z,5.55
2023-04-14T05:08:51.329Z,4.30
2023-04-14T05:09:53.816Z,4.40
2023-04-14T05:10:55.375Z,5.20
2023-04-14T05:11:58.129Z,5.28
2023-04-14T05:12:59.651Z,4.82
2023-04-14T05:14:02.506Z,4.75
2023-04-14T05:15:05.091Z,5.15
2023-04-14T05:16:09.733Z,4.93
2023-04-14T05:17:11.358Z,4.82
2023-04-14T05:18:13.941Z,5.15
2023-04-14T05:19:15.748Z,5.15
2023-04-14T05:20:18.340Z,5.40
2023-04-14T05:21:20.439Z,5.05
2023-04-14T05:22:25.785Z,5.15
2023-04-14T05:23:28.672Z,5.30
2023-04-14T05:24:31.131Z,5.00
2023-04-14T05:25:32.646Z,4.72
2023-04-14T05:26:54.840Z,4.80
2023-04-14T05:27:57.561Z,5.13
2023-04-14T05:28:59.608Z,5.75
2023-04-14T05:30:02.537Z,4.55
2023-04-14T05:31:04.318Z,5.10
2023-04-14T05:32:06.918Z,4.80
2023-04-14T05:33:08.557Z,5.03
2023-04-14T05:34:12.708Z,5.95
2023-04-14T05:35:14.478Z,5.95
2023-04-14T05:36:17.264Z,5.60
2023-04-14T05:37:19.599Z,5.40
2023-04-14T05:38:22.530Z,5.50
2023-04-14T05:39:26.433Z,5.25
2023-04-14T05:40:28.547Z,4.78
2023-04-14T05:41:31.040Z,5.55
2023-04-14T05:42:32.619Z,5.22
2023-04-14T05:43:35.393Z,5.65
2023-04-14T05:44:39.430Z,6.25
2023-04-14T05:45:42.209Z,5.63
2023-04-14T05:46:45.010Z,6.28
2023-04-14T05:47:48.118Z,5.93
2023-04-14T05:48:50.681Z,5.43
2023-04-14T05:49:52.205Z,5.68
2023-04-14T05:50:54.689Z,5.88
2023-04-14T05:51:56.522Z,5.82
2023-04-14T05:52:58.990Z,5.50
2023-04-14T05:54:01.085Z,5.95
2023-04-14T05:55:05.926Z,5.65
2023-04-14T05:56:09.928Z,5.97
2023-04-14T05:57:12.761Z,5.60
2023-04-14T05:58:14.765Z,5.32
2023-04-14T05:59:17.330Z,5.55
2023-04-14T06:00:19.665Z,5.50
2023-04-14T06:01:22.184Z,6.35
2023-04-14T06:02:23.767Z,5.97
2023-04-14T06:03:26.568Z,6.07
2023-04-14T06:04:28.243Z,5.35
2023-04-14T06:05:30.946Z,5.88
2023-04-14T06:06:32.705Z,5.78
2023-04-14T06:07:35.710Z,5.65
2023-04-14T06:08:37.353Z,6.40
2023-04-14T06:09:39.832Z,5.65
2023-04-14T06:10:43.746Z,5.60
2023-04-14T06:11:46.005Z,5.65
2023-04-14T06:12:48.511Z,6.40
2023-04-14T06:13:50.297Z,6.00
2023-04-14T06:14:53.514Z,5.97
2023-04-14T06:15:58.218Z,5.75
2023-04-14T06:16:59.801Z,5.68
2023-04-14T06:18:02.352Z,6.20
2023-04-14T06:19:04.215Z,5.45
2023-04-14T06:20:08.816Z,6.20
2023-04-14T06:21:11.312Z,5.95
2023-04-14T06:22:16.794Z,6.35
2023-04-14T06:23:19.406Z,5.88
2023-04-14T06:24:20.939Z,5.57
2023-04-14T06:25:23.497Z,5.55
2023-04-14T06:26:26.430Z,5.32
2023-04-14T06:27:28.892Z,4.70
2023-04-14T06:28:31.356Z,5.50
2023-04-14T06:29:32.913Z,6.10
2023-04-14T06:30:35.391Z,5.97
2023-04-14T06:31:37.918Z,5.72
2023-04-14T06:32:39.509Z,5.88
2023-04-14T06:33:42.090Z,6.82
2023-04-14T06:34:43.696Z,5.28
2023-04-14T06:35:46.249Z,5.82
2023-04-14T06:36:47.862Z,6.18
2023-04-14T06:37:51.645Z,5.75
2023-04-14T06:38:54.160Z,6.25
2023-04-14T06:39:55.912Z,5.65
2023-04-14T06:40:58.418Z,6.57
2023-04-14T06:42:04.861Z,6.20
2023-04-14T06:43:10.843Z,6.40
2023-04-14T06:44:12.518Z,6.32
2023-04-14T06:45:15.099Z,6.32
2023-04-14T06:46:17.366Z,6.80
2023-04-14T06:47:20.959Z,6.68
2023-04-14T06:48:22.751Z,7.70
2023-04-14T06:49:25.250Z,7.05
2023-04-14T06:50:27.835Z,7.10
2023-04-14T06:51:30.809Z,6.82
2023-04-14T06:52:33.330Z,6.90
2023-04-14T06:53:34.851Z,7.07
2023-04-14T06:54:37.418Z,7.45
2023-04-14T06:55:41.244Z,7.03
2023-04-14T06:56:43.802Z,6.80
2023-04-14T06:57:46.674Z,6.47
2023-04-14T06:58:49.258Z,7.10
2023-04-14T06:59:52.043Z,6.78
2023-04-14T07:00:55.344Z,6.53
2023-04-14T07:01:58.868Z,7.18
2023-04-14T07:03:01.585Z,6.40
2023-04-14T07:04:06.833Z,6.90
2023-04-14T07:05:10.643Z,6.72
2023-04-14T07:06:17.013Z,7.18
2023-04-14T07:07:19.545Z,6.15
2023-04-14T07:08:21.826Z,6.95
2023-04-14T07:09:24.675Z,6.47
2023-04-14T07:10:27.287Z,6.80
2023-04-14T07:11:30.289Z,6.65
2023-04-14T07:12:32.881Z,6.75
2023-04-14T07:13:37.644Z,6.50
2023-04-14T07:14:40.297Z,6.03
2023-04-14T07:16:49.098Z,6.55
2023-04-14T07:17:51.638Z,7.43
2023-04-14T07:18:53.284Z,7.90
2023-04-14T07:19:56.775Z,7.15
2023-04-14T07:20:59.519Z,9.05
2023-04-14T07:22:02.049Z,9.27
2023-04-14T07:23:04.777Z,8.50
2023-04-14T07:24:06.509Z,8.50
2023-04-14T07:25:13.847Z,9.10
2023-04-14T07:26:15.684Z,11.20
2023-04-14T07:27:18.251Z,11.10
2023-04-14T07:28:20.253Z,10.52
2023-04-14T07:29:24.166Z,10.55
2023-04-14T07:30:27.150Z,11.05
2023-04-14T07:31:31.312Z,11.23
2023-04-14T07:32:34.072Z,11.00
2023-04-14T07:33:36.091Z,11.30
2023-04-14T07:34:39.686Z,11.77
2023-04-14T07:35:50.985Z,11.90
2023-04-14T07:37:01.563Z,11.60
2023-04-14T07:38:04.258Z,11.23
2023-04-14T07:39:07.093Z,11.40
2023-04-14T07:40:09.788Z,10.75
2023-04-14T07:41:12.352Z,9.07
2023-04-14T07:42:14.929Z,9.23
2023-04-14T07:43:16.859Z,7.50
2023-04-14T07:44:19.421Z,6.63
2023-04-14T07:45:25.823Z,5.95
2023-04-14T07:46:28.578Z,5.82
2023-04-14T07:47:30.212Z,6.18
2023-04-14T07:48:33.061Z,5.63
2023-04-14T07:49:38.824Z,6.28
2023-04-14T07:50:40.619Z,6.05
2023-04-14T07:51:43.990Z,5.35
2023-04-14T07:52:48.213Z,5.53
2023-04-14T07:53:54.235Z,6.40
2023-04-14T07:54:55.814Z,5.88
2023-04-14T07:55:58.611Z,6.38
2023-04-14T07:57:01.376Z,6.32
2023-04-14T07:58:03.045Z,6.50
2023-04-14T07:59:09.898Z,6.78
2023-04-14T08:00:12.623Z,6.38
2023-04-14T08:01:17.256Z,5.80
2023-04-14T08:02:18.927Z,6.38
2023-04-14T08:03:22.101Z,6.68
2023-04-14T08:04:24.696Z,6.38
2023-04-14T08:05:26.720Z,6.80
2023-04-14T08:06:29.352Z,6.53
2023-04-14T08:07:31.492Z,6.65
2023-04-14T08:08:34.457Z,6.60
2023-04-14T08:09:36.060Z,6.63
2023-04-14T08:10:38.983Z,7.32
2023-04-14T08:11:41.655Z,6.70
2023-04-14T08:12:44.255Z,6.80
2023-04-14T08:13:46.467Z,6.80
2023-04-14T08:14:49.079Z,6.45
2023-04-14T08:15:50.743Z,6.97
2023-04-14T08:16:54.717Z,6.90
2023-04-14T08:17:56.430Z,6.95
2023-04-14T08:19:02.720Z,7.30
2023-04-14T08:20:06.790Z,6.50
2023-04-14T08:21:11.410Z,6.68
2023-04-14T08:22:12.961Z,6.38
2023-04-14T08:23:15.470Z,6.38
2023-04-14T08:24:17.054Z,6.18
2023-04-14T08:25:19.625Z,5.97
2023-04-14T08:26:21.402Z,5.50
2023-04-14T08:27:26.850Z,7.00
2023-04-14T08:28:29.884Z,6.93
2023-04-14T08:29:31.450Z,5.60
2023-04-14T08:30:34.023Z,5.78
2023-04-14T08:31:35.558Z,5.07
2023-04-14T08:32:39.598Z,5.45
2023-04-14T08:33:42.119Z,6.00
2023-04-14T08:35:36.370Z,5.22
2023-04-14T08:36:07.722Z,5.10
2023-04-14T08:37:10.421Z,6.05
2023-04-14T08:38:13.223Z,5.97
2023-04-14T08:39:15.945Z,6.15
2023-04-14T08:40:20.667Z,5.70
2023-04-14T08:41:24.663Z,6.10
2023-04-14T08:42:26.335Z,5.40
2023-04-14T08:43:29.010Z,5.63
2023-04-14T08:44:30.830Z,4.70
2023-04-14T08:45:34.615Z,4.93
2023-04-14T08:46:37.444Z,5.30
2023-04-14T08:47:41.660Z,5.32
2023-04-14T08:48:47.648Z,5.22
2023-04-14T08:49:57.201Z,5.10
2023-04-14T08:51:07.614Z,4.78
2023-04-14T08:52:11.971Z,5.20
2023-04-14T08:53:15.246Z,4.45
2023-04-14T08:54:18.637Z,4.50
2023-04-14T08:55:20.642Z,4.95
2023-04-14T08:56:25.727Z,4.82
2023-04-14T08:57:28.608Z,4.55
2023-04-14T08:58:32.433Z,4.07
2023-04-14T08:59:35.293Z,4.18
2023-04-14T09:00:38.870Z,4.68
2023-04-14T09:01:40.527Z,5.90
2023-04-14T09:02:45.561Z,6.00
2023-04-14T09:03:49.772Z,6.05
2023-04-14T09:04:52.638Z,6.45
2023-04-14T09:05:55.754Z,5.78
2023-04-14T09:06:58.337Z,5.50
2023-04-14T09:08:01.636Z,7.47
2023-04-14T09:09:07.597Z,7.05
2023-04-14T09:10:12.392Z,6.47
2023-04-14T09:11:15.922Z,5.55
2023-04-14T09:12:18.629Z,5.80
2023-04-14T09:13:22.993Z,6.00
2023-04-14T09:14:25.834Z,5.47
2023-04-14T09:15:29.083Z,5.03
2023-04-14T09:16:32.336Z,4.70
2023-04-14T09:17:36.578Z,5.05
2023-04-14T09:18:41.348Z,5.95
2023-04-14T09:20:35.747Z,7.20
2023-04-14T09:21:50.835Z,5.03
2023-04-14T09:22:29.728Z,4.63
2023-04-14T09:23:32.042Z,4.63
2023-04-14T09:24:36.795Z,4.57
2023-04-14T09:25:39.191Z,5.18
2023-04-14T09:26:42.649Z,5.13
2023-04-14T09:27:45.595Z,7.90
2023-04-14T09:28:48.059Z,7.22
2023-04-14T09:29:50.105Z,4.85
2023-04-14T09:30:52.971Z,4.88
2023-04-14T09:31:54.665Z,5.35
2023-04-14T09:32:57.487Z,5.43
2023-04-14T09:34:01.020Z,4.80
2023-04-14T09:35:03.934Z,4.50
2023-04-14T09:36:06.909Z,4.65
2023-04-14T09:37:11.033Z,4.70
2023-04-14T09:38:12.987Z,4.00
2023-04-14T09:39:18.997Z,4.13
2023-04-14T09:40:31.978Z,4.78
2023-04-14T09:41:34.125Z,4.82
2023-04-14T09:42:40.855Z,4.78
2023-04-14T09:43:42.762Z,5.18
2023-04-14T09:44:55.724Z,4.78
2023-04-14T09:46:05.173Z,6.55
2023-04-14T09:47:07.856Z,6.55
2023-04-14T09:48:11.231Z,7.05
2023-04-14T09:49:15.035Z,7.30
2023-04-14T09:50:16.598Z,7.65
2023-04-14T09:51:23.406Z,7.85
2023-04-14T09:52:38.685Z,7.88
2023-04-14T09:53:41.688Z,7.60
2023-04-14T09:54:45.577Z,8.23
2023-04-14T09:55:50.868Z,5.90
2023-04-14T09:56:53.956Z,5.50
2023-04-14T09:57:55.764Z,4.82
2023-04-14T09:59:00.365Z,5.03
2023-04-14T10:00:02.196Z,5.90
2023-04-14T10:01:05.854Z,4.95
2023-04-14T10:02:08.335Z,4.75
2023-04-14T10:03:11.180Z,4.85
2023-04-14T10:04:24.608Z,4.32
2023-04-14T10:05:27.151Z,4.60
2023-04-14T10:06:31.257Z,3.90
2023-04-14T10:07:34.541Z,3.28
2023-04-14T10:08:37.994Z,3.35
2023-04-14T10:09:41.904Z,3.85
2023-04-14T10:10:43.564Z,3.67
2023-04-14T10:11:46.046Z,3.58
2023-04-14T10:12:47.686Z,3.47
2023-04-14T10:13:52.220Z,3.85
2023-04-14T10:14:54.754Z,3.33
2023-04-14T10:15:56.369Z,2.70
2023-04-14T10:16:58.988Z,3.00
2023-04-14T10:18:02.786Z,3.22
2023-04-14T10:19:05.840Z,3.05
2023-04-14T10:20:11.384Z,2.80
2023-04-14T10:21:14.867Z,3.33
2023-04-14T10:22:18.954Z,3.15
2023-04-14T10:23:20.490Z,2.78
2023-04-14T10:24:23.163Z,3.05
2023-04-14T10:25:27.864Z,3.17
2023-04-14T10:26:31.275Z,3.67
2023-04-14T10:27:34.844Z,3.28
2023-04-14T10:28:41.104Z,3.00
2023-04-14T10:29:43.874Z,2.78
2023-04-14T10:30:46.503Z,2.75
2023-04-14T10:31:52.534Z,2.63
2023-04-14T10:32:55.356Z,3.15
2023-04-14T10:34:11.435Z,2.90
2023-04-14T10:35:18.499Z,3.63
2023-04-14T10:36:24.839Z,3.03
2023-04-14T10:37:28.032Z,6.95
2023-04-14T10:38:40.750Z,5.55
2023-04-14T10:39:43.847Z,3.60
2023-04-14T10:40:46.786Z,3.08
2023-04-14T10:41:51.113Z,2.90
2023-04-14T10:42:55.915Z,2.70
2023-04-14T10:43:58.434Z,2.70
2023-04-14T10:45:05.874Z,2.78
2023-04-14T10:46:09.777Z,2.38
2023-04-14T10:47:24.927Z,2.45
2023-04-14T10:48:28.798Z,2.65
2023-04-14T10:49:33.045Z,2.80
2023-04-14T10:50:48.965Z,2.58
2023-04-14T10:51:52.157Z,2.97
2023-04-14T10:52:55.719Z,3.08
2023-04-14T10:53:58.407Z,2.72
2023-04-14T10:55:08.272Z,2.70
2023-04-14T10:56:11.185Z,3.20
2023-04-14T10:57:13.025Z,2.88
2023-04-14T10:58:21.271Z,3.38
2023-04-14T10:59:23.996Z,3.00
2023-04-14T11:00:28.427Z,2.80
2023-04-14T11:01:32.857Z,2.60
2023-04-14T11:02:38.764Z,2.90
2023-04-14T11:03:45.104Z,2.72
2023-04-14T11:04:59.670Z,2.80
2023-04-14T11:06:03.908Z,2.63
2023-04-14T11:07:09.479Z,2.67
2023-04-14T11:08:18.192Z,2.92
2023-04-14T11:09:43.582Z,3.25
2023-04-14T11:10:51.037Z,3.10
2023-04-14T11:11:55.476Z,3.00
2023-04-14T11:13:03.798Z,3.15
2023-04-14T11:14:11.244Z,3.30
2023-04-14T11:15:14.351Z,3.03
2023-04-14T11:16:29.933Z,3.10
2023-04-14T11:17:33.962Z,3.90
2023-04-14T11:19:43.920Z,3.10
2023-04-14T11:20:46.694Z,2.92
2023-04-14T11:21:50.189Z,3.63
2023-04-14T11:22:54.211Z,3.30
2023-04-14T11:23:59.318Z,3.00
2023-04-14T11:25:02.739Z,2.78
2023-04-14T11:26:06.753Z,2.63
2023-04-14T11:27:11.645Z,3.28
2023-04-14T11:28:14.287Z,3.25
2023-04-14T11:29:16.667Z,3.75
2023-04-14T11:30:20.477Z,3.50
2023-04-14T11:31:28.091Z,3.22
2023-04-14T11:32:29.903Z,3.50
2023-04-14T11:33:34.020Z,3.38
2023-04-14T11:34:35.659Z,2.60
2023-04-14T11:35:38.344Z,2.65
2023-04-14T11:36:40.005Z,2.60
2023-04-14T11:37:44.139Z,2.50
2023-04-14T11:38:47.194Z,2.67
2023-04-14T11:39:49.695Z,2.50
2023-04-14T11:40:53.128Z,2.65
2023-04-14T11:41:56.055Z,2.85
2023-04-14T11:43:00.618Z,2.53
2023-04-14T11:44:02.256Z,2.75
2023-04-14T11:45:07.176Z,3.33
2023-04-14T11:46:10.016Z,2.78
2023-04-14T11:47:12.743Z,2.50
2023-04-14T11:48:17.388Z,2.72
2023-04-14T11:49:20.618Z,3.20
2023-04-14T11:50:24.633Z,2.95
2023-04-14T11:51:32.402Z,3.58
2023-04-14T11:52:34.380Z,3.25
2023-04-14T11:53:40.412Z,3.22
2023-04-14T11:54:41.956Z,2.90
2023-04-14T11:55:46.184Z,3.08
2023-04-14T11:56:48.040Z,2.50
2023-04-14T11:57:50.774Z,2.53
2023-04-14T11:59:00.595Z,2.70
2023-04-14T12:00:02.434Z,2.50
2023-04-14T12:01:05.289Z,2.80
2023-04-14T12:02:15.738Z,2.75
2023-04-14T12:03:18.884Z,3.20
2023-04-14T12:04:21.588Z,3.05
2023-04-14T12:05:30.297Z,2.88
2023-04-14T12:06:37.115Z,2.85
2023-04-14T12:07:39.151Z,2.75
2023-04-14T12:08:43.113Z,3.03
2023-04-14T12:09:46.100Z,2.40
2023-04-14T12:10:48.584Z,2.30
2023-04-14T12:11:56.327Z,2.53
2023-04-14T12:13:03.073Z,2.60
2023-04-14T12:14:05.915Z,2.72
2023-04-14T12:15:09.367Z,1.98
2023-04-14T12:16:12.959Z,2.00
2023-04-14T12:17:16.547Z,2.00
2023-04-14T12:19:21.971Z,1.55
2023-04-14T12:20:24.679Z,2.05
2023-04-14T12:21:27.203Z,1.60
2023-04-14T12:22:30.747Z,1.55
2023-04-14T12:23:35.768Z,1.60
2023-04-14T12:24:41.849Z,1.38
2023-04-14T12:25:44.429Z,1.55
2023-04-14T12:26:46.027Z,1.60
2023-04-14T12:27:55.815Z,1.60
2023-04-14T12:28:58.862Z,1.90
2023-04-14T12:30:01.444Z,1.65
2023-04-14T12:31:04.201Z,1.33
2023-04-14T12:32:12.296Z,1.42
2023-04-14T12:33:14.023Z,1.35
2023-04-14T12:34:18.244Z,1.23
2023-04-14T12:35:23.980Z,1.17
2023-04-14T12:36:32.960Z,1.35
2023-04-14T12:37:49.863Z,1.52
2023-04-14T12:38:51.491Z,1.38
2023-04-14T12:39:58.914Z,1.30
2023-04-14T12:41:02.102Z,1.30
2023-04-14T12:42:04.308Z,1.58
2023-04-14T12:43:07.237Z,1.15
2023-04-14T12:44:16.442Z,1.30
2023-04-14T12:45:18.241Z,1.20
2023-04-14T12:46:25.655Z,1.50
2023-04-14T12:47:32.546Z,1.40
2023-04-14T12:48:43.867Z,1.38
2023-04-14T12:49:46.494Z,1.55
2023-04-14T12:50:51.185Z,1.30
2023-04-14T12:51:53.292Z,1.33
2023-04-14T12:52:56.829Z,1.40
2023-04-14T12:54:08.935Z,1.42
2023-04-14T12:55:22.125Z,1.30
2023-04-14T12:56:23.631Z,1.20
2023-04-14T12:57:26.161Z,1.55
2023-04-14T12:58:29.717Z,1.27
2023-04-14T12:59:32.165Z,1.40
2023-04-14T13:00:34.774Z,1.20
2023-04-14T13:01:36.475Z,1.50
2023-04-14T13:02:39.233Z,1.40
2023-04-14T13:03:45.978Z,1.58
2023-04-14T13:04:48.862Z,1.30
2023-04-14T13:05:51.357Z,1.20
2023-04-14T13:06:53.909Z,1.15
2023-04-14T13:07:56.314Z,1.30
2023-04-14T13:08:59.572Z,1.13
2023-04-14T13:10:01.866Z,1.77
2023-04-14T13:11:06.158Z,1.40
2023-04-14T13:12:07.712Z,1.55
2023-04-14T13:13:10.272Z,1.42
2023-04-14T13:14:11.797Z,1.70
2023-04-14T13:16:10.917Z,2.08
2023-04-14T13:16:37.143Z,2.10
2023-04-14T13:17:39.743Z,2.20
2023-04-14T13:18:41.334Z,2.10
2023-04-14T13:19:43.856Z,2.67
2023-04-14T13:20:52.542Z,2.60
2023-04-14T13:21:55.044Z,2.47
2023-04-14T13:22:57.538Z,2.47
2023-04-14T13:23:59.058Z,2.38
2023-04-14T13:25:02.472Z,2.50
2023-04-14T13:26:05.737Z,2.63
2023-04-14T13:27:08.279Z,2.55
2023-04-14T13:28:09.837Z,2.30
2023-04-14T13:29:13.123Z,2.40
2023-04-14T13:30:14.699Z,2.30
2023-04-14T13:31:18.079Z,2.00
2023-04-14T13:32:20.704Z,2.35
2023-04-14T13:33:23.396Z,2.60
2023-04-14T13:34:26.417Z,2.67
2023-04-14T13:35:27.952Z,2.60
2023-04-14T13:36:30.808Z,2.60
2023-04-14T13:37:33.289Z,2.90
2023-04-14T13:38:34.806Z,2.63
2023-04-14T13:39:37.514Z,2.50
2023-04-14T13:40:39.104Z,2.55
2023-04-14T13:41:42.988Z,2.63
2023-04-14T13:42:45.165Z,2.72
2023-04-14T13:43:48.251Z,2.90
2023-04-14T13:44:50.832Z,2.58
2023-04-14T13:45:52.795Z,2.45
2023-04-14T13:46:56.273Z,2.95
2023-04-14T13:47:58.083Z,2.90
2023-04-14T13:49:01.548Z,2.72
2023-04-14T13:50:03.499Z,2.83
2023-04-14T13:51:06.387Z,3.20
2023-04-14T13:52:08.312Z,3.00
2023-04-14T13:53:12.269Z,2.97
2023-04-14T13:54:14.809Z,2.55
2023-04-14T13:55:18.608Z,2.53
2023-04-14T13:56:22.704Z,2.40
2023-04-14T13:57:26.575Z,2.08
2023-04-14T13:58:29.141Z,2.33
2023-04-14T13:59:30.913Z,2.20
2023-04-14T14:00:33.378Z,2.35
2023-04-14T14:01:35.950Z,2.25
2023-04-14T14:02:39.561Z,2.45
2023-04-14T14:03:42.580Z,2.45
2023-04-14T14:04:44.405Z,2.70
2023-04-14T14:05:47.001Z,2.50
2023-04-14T14:06:49.548Z,3.25
2023-04-14T14:07:51.388Z,3.08
2023-04-14T14:09:04.158Z,2.75
2023-04-14T14:10:10.654Z,3.40
2023-04-14T14:11:12.636Z,2.40
2023-04-14T14:12:17.008Z,2.63
2023-04-14T14:13:21.671Z,2.70
2023-04-14T14:14:24.335Z,2.70
2023-04-14T14:15:26.972Z,2.72
2023-04-14T14:16:36.722Z,2.65
2023-04-14T14:17:40.848Z,2.58